Time;durP1;ratioP1;P1;durP2;ratioP2;P2;SDS_P1;SDS_P2;PMS_P1;PMS_P2;Temp;Humidity;BMP_temperature;BMP_pressure;BME280_temperature;BME280_humidity;BME280_pressure;Samples;Min_cycle;Max_cycle;Signal;HPM_P1;HPM_P2
2022/03/12 00:00:43;;;;;;;;;;;8.40;60.10;;;;;;5073535;28;20021;-72
2022/03/12 00:03:09;;;;;;;;;;;8.40;60.10;;;;;;5074737;28;20361;-70
2022/03/12 00:05:36;;;;;;;19.50;9.90;;;8.40;60.20;;;;;;5075385;28;19915;-69
2022/03/12 00:08:05;;;;;;;;;;;8.40;60.20;;;;;;5075471;28;20482;-70
2022/03/12 00:10:34;;;;;;;17.58;10.68;;;8.40;60.40;;;;;;5076359;28;20292;-71
2022/03/12 00:13:01;;;;;;;19.65;11.13;;;8.40;60.50;;;;;;5076581;28;20039;-70
2022/03/12 00:15:29;;;;;;;26.23;12.02;;;8.30;60.60;;;;;;5079583;28;20032;-70
2022/03/12 00:17:54;;;;;;;20.27;10.93;;;8.30;60.60;;;;;;5076202;28;20020;-70
2022/03/12 00:20:22;;;;;;;17.63;10.20;;;8.30;60.50;;;;;;5078515;28;20051;-70
2022/03/12 00:22:50;;;;;;;18.83;10.80;;;8.40;61.10;;;;;;5078288;28;20027;-71
2022/03/12 00:25:21;;;;;;;18.85;11.85;;;8.40;60.70;;;;;;5078826;28;20028;-70
2022/03/12 00:27:50;;;;;;;20.83;10.68;;;8.50;60.90;;;;;;5076659;28;20025;-69
2022/03/12 00:30:19;;;;;;;18.48;10.40;;;8.40;60.70;;;;;;5077692;28;20071;-70
2022/03/12 00:32:48;;;;;;;17.02;10.32;;;8.40;60.80;;;;;;5078312;28;20021;-70
2022/03/12 00:35:15;;;;;;;19.27;10.90;;;8.30;61.00;;;;;;5078058;28;20025;-70
2022/03/12 00:37:41;;;;;;;17.73;11.15;;;8.30;61.00;;;;;;5076346;28;20023;-70
2022/03/12 00:40:07;;;;;;;20.98;11.48;;;8.30;61.30;;;;;;5077526;28;20368;-69
2022/03/12 00:42:32;;;;;;;20.25;10.48;;;8.30;61.20;;;;;;5075386;28;20031;-69
2022/03/12 00:44:59;;;;;;;20.53;11.23;;;8.30;61.20;;;;;;5075031;28;20029;-70
2022/03/12 00:47:26;;;;;;;18.00;10.77;;;8.30;61.20;;;;;;5075579;28;20345;-70
2022/03/12 00:49:52;;;;;;;19.55;11.20;;;8.30;61.30;;;;;;5074051;28;20102;-69
2022/03/12 00:52:18;;;;;;;15.82;10.45;;;8.40;61.40;;;;;;5075914;28;20413;-70
2022/03/12 00:54:44;;;;;;;19.97;11.70;;;8.40;61.70;;;;;;5074147;28;20086;-70
2022/03/12 00:57:12;;;;;;;22.90;11.48;;;8.40;61.40;;;;;;5073069;28;20161;-69
2022/03/12 00:59:42;;;;;;;20.23;10.73;;;8.60;61.30;;;;;;5077705;28;20031;-71
2022/03/12 01:02:13;;;;;;;18.48;10.52;;;8.50;61.10;;;;;;5077508;28;20066;-70
2022/03/12 01:04:39;;;;;;;19.60;11.27;;;8.40;61.20;;;;;;5075845;28;20498;-68
2022/03/12 01:07:05;;;;;;;22.23;11.48;;;8.60;62.10;;;;;;5073615;28;20027;-69
2022/03/12 01:09:31;;;;;;;19.58;10.50;;;8.60;61.50;;;;;;5073683;28;20118;-69
2022/03/12 01:11:57;;;;;;;20.90;12.05;;;8.70;60.70;;;;;;5073860;28;20115;-69
2022/03/12 01:14:23;;;;;;;21.90;10.68;;;8.60;61.30;;;;;;5071985;28;20040;-68
2022/03/12 01:16:49;;;;;;;18.27;10.13;;;8.50;61.10;;;;;;5073429;28;20381;-68
2022/03/12 01:19:15;;;;;;;21.48;11.40;;;8.40;61.20;;;;;;5072524;28;20362;-68
2022/03/12 01:21:41;;;;;;;18.05;11.55;;;8.40;61.60;;;;;;5076288;28;20047;-69
2022/03/12 01:24:07;;;;;;;17.52;10.60;;;8.50;62.10;;;;;;5076379;28;20060;-69
2022/03/12 01:26:35;;;;;;;19.93;11.67;;;8.60;62.00;;;;;;5077010;28;20036;-68
2022/03/12 01:29:02;;;;;;;17.00;9.93;;;8.70;62.20;;;;;;5079473;28;20267;-69
2022/03/12 01:31:28;;;;;;;16.95;9.85;;;8.60;61.70;;;;;;5075548;28;20373;-69
2022/03/12 01:33:53;;;;;;;18.07;10.47;;;8.50;61.60;;;;;;5075644;28;20021;-71
2022/03/12 01:36:19;;;;;;;20.15;10.95;;;8.40;62.40;;;;;;5073131;28;20056;-69
2022/03/12 01:38:51;;;;;;;20.00;12.10;;;8.50;62.50;;;;;;5074026;28;20031;-69
2022/03/12 01:41:27;;;;;;;17.98;11.18;;;8.50;62.30;;;;;;5075173;28;20308;-70
2022/03/12 01:43:54;;;;;;;18.30;10.05;;;8.40;62.20;;;;;;5075453;28;20473;-69
2022/03/12 01:46:46;;;;;;;19.95;11.10;;;8.50;62.70;;;;;;5074587;28;20115;-69
2022/03/12 01:49:18;;;;;;;24.92;10.70;;;8.60;62.60;;;;;;5075012;28;20431;-70
2022/03/12 01:51:47;;;;;;;25.45;11.00;;;8.60;62.50;;;;;;5073462;28;20032;-69
2022/03/12 01:54:18;;;;;;;21.63;11.15;;;8.60;62.20;;;;;;5072784;28;20031;-69
2022/03/12 01:56:45;;;;;;;20.42;11.43;;;8.60;62.80;;;;;;5074753;28;20025;-69
2022/03/12 01:59:11;;;;;;;18.85;11.05;;;8.50;62.90;;;;;;5074240;28;20070;-69
2022/03/12 02:01:37;;;;;;;;;;;8.50;63.00;;;;;;5073778;28;20029;-70
2022/03/12 02:04:07;;;;;;;20.83;11.23;;;8.40;63.00;;;;;;5072301;28;19913;-68
2022/03/12 02:06:34;;;;;;;21.67;12.40;;;8.40;63.30;;;;;;5073314;28;20024;-68
2022/03/12 02:09:00;;;;;;;;;;;8.40;63.40;;;;;;5073501;28;20097;-69
2022/03/12 02:11:30;;;;;;;22.30;11.32;;;8.30;63.40;;;;;;5073181;28;20007;-69
2022/03/12 02:14:12;;;;;;;20.45;10.55;;;8.20;63.70;;;;;;5074475;28;20021;-69
2022/03/12 02:16:42;;;;;;;18.65;11.00;;;8.20;64.00;;;;;;5077609;28;20024;-69
2022/03/12 02:19:08;;;;;;;21.70;11.95;;;8.20;64.20;;;;;;5074518;28;20032;-70
2022/03/12 02:21:52;;;;;;;17.67;10.87;;;8.10;64.60;;;;;;5074486;28;20024;-69
2022/03/12 02:24:20;;;;;;;18.65;10.70;;;8.20;65.20;;;;;;5073575;28;20258;-69
2022/03/12 02:26:46;;;;;;;18.83;11.10;;;8.20;64.70;;;;;;5073445;28;20045;-70
2022/03/12 02:29:18;;;;;;;17.80;10.70;;;8.10;64.90;;;;;;5074780;28;20025;-69
2022/03/12 02:31:48;;;;;;;19.15;10.77;;;8.00;65.20;;;;;;5075108;28;20074;-69
2022/03/12 02:34:21;;;;;;;18.70;11.07;;;7.90;65.60;;;;;;5074907;28;20024;-69
2022/03/12 02:36:49;;;;;;;19.83;10.55;;;7.90;65.60;;;;;;5075155;28;20070;-68
2022/03/12 02:39:16;;;;;;;19.83;11.40;;;7.80;66.10;;;;;;5074942;28;20021;-70
2022/03/12 02:41:42;;;;;;;;;;;7.80;66.30;;;;;;5076783;28;20490;-69
2022/03/12 02:44:10;;;;;;;25.08;12.07;;;7.70;66.30;;;;;;5076164;28;20388;-69
2022/03/12 02:46:40;;;;;;;22.50;12.45;;;7.70;66.60;;;;;;5076241;28;20043;-69
2022/03/12 02:49:06;;;;;;;30.90;11.45;;;7.70;67.00;;;;;;5074650;28;20393;-69
2022/03/12 02:51:34;;;;;;;24.07;11.77;;;7.60;67.20;;;;;;5076213;28;20021;-69
2022/03/12 02:54:00;;;;;;;20.70;10.65;;;7.60;67.40;;;;;;5076503;28;20377;-69
2022/03/12 02:56:26;;;;;;;21.30;10.88;;;7.50;67.30;;;;;;5077069;28;20029;-70
2022/03/12 02:58:52;;;;;;;;;;;7.50;67.40;;;;;;5077619;28;20039;-70
2022/03/12 03:01:18;;;;;;;21.92;10.50;;;7.50;67.60;;;;;;5076285;28;19905;-68
2022/03/12 03:03:46;;;;;;;25.15;10.07;;;7.50;68.40;;;;;;5075179;28;20067;-68
2022/03/12 03:06:14;;;;;;;20.50;10.60;;;7.40;67.90;;;;;;5075300;28;20497;-69
2022/03/12 03:08:40;;;;;;;17.75;10.30;;;7.40;67.80;;;;;;5076302;28;20501;-69
2022/03/12 03:11:16;;;;;;;17.92;10.13;;;7.40;67.50;;;;;;5074799;28;20544;-68
2022/03/12 03:13:44;;;;;;;19.00;10.35;;;7.40;67.30;;;;;;5074792;28;20037;-69
2022/03/12 03:16:21;;;;;;;19.30;10.90;;;7.40;67.00;;;;;;5075825;28;20546;-69
2022/03/12 03:18:53;;;;;;;16.70;10.60;;;7.40;66.80;;;;;;5076026;28;20027;-68
2022/03/12 03:21:26;;;;;;;18.90;10.15;;;7.40;66.80;;;;;;5074787;28;20024;-69
2022/03/12 03:23:53;;;;;;;20.17;10.60;;;7.40;67.40;;;;;;5074618;28;20024;-69
2022/03/12 03:26:34;;;;;;;20.63;11.20;;;7.50;66.70;;;;;;5075862;28;20024;-70
2022/03/12 03:29:00;;;;;;;18.77;10.73;;;7.40;66.90;;;;;;5074345;28;20021;-70
2022/03/12 03:31:26;;;;;;;21.15;11.45;;;7.70;67.90;;;;;;5074189;28;20025;-69
2022/03/12 03:33:52;;;;;;;22.38;11.18;;;7.70;68.00;;;;;;5074102;28;20035;-69
2022/03/12 03:36:19;;;;;;;24.30;12.50;;;7.70;68.10;;;;;;5073865;28;20024;-69
2022/03/12 03:38:45;;;;;;;20.75;10.93;;;7.60;68.30;;;;;;5074369;28;20500;-69
2022/03/12 03:41:10;;;;;;;17.80;10.27;;;7.50;67.30;;;;;;5075651;28;20029;-68
2022/03/12 03:43:36;;;;;;;20.23;11.07;;;7.40;67.10;;;;;;5074210;28;20027;-68
2022/03/12 03:46:02;;;;;;;18.90;10.80;;;7.60;69.00;;;;;;5074135;28;20746;-68
2022/03/12 03:48:28;;;;;;;20.63;11.00;;;7.60;68.60;;;;;;5075039;28;20110;-69
2022/03/12 03:50:54;;;;;;;20.23;10.73;;;7.60;68.70;;;;;;5073775;28;20103;-69
2022/03/12 03:53:22;;;;;;;20.88;11.13;;;7.90;68.00;;;;;;5075088;28;20112;-69
2022/03/12 03:55:49;;;;;;;18.52;10.50;;;7.70;67.40;;;;;;5073723;28;20021;-68
2022/03/12 03:58:15;;;;;;;18.63;11.68;;;7.60;67.30;;;;;;5074897;28;20028;-69
2022/03/12 04:00:55;;;;;;;21.05;10.43;;;7.60;67.00;;;;;;5074901;28;20031;-69
2022/03/12 04:03:21;;;;;;;21.00;11.20;;;7.50;67.30;;;;;;5073317;28;20040;-68
2022/03/12 04:05:47;;;;;;;18.98;11.77;;;7.50;67.10;;;;;;5073751;28;20024;-69
2022/03/12 04:08:13;;;;;;;23.80;11.00;;;7.40;67.40;;;;;;5073377;28;20037;-69
2022/03/12 04:10:39;;;;;;;18.00;10.50;;;7.40;67.80;;;;;;5074490;28;20024;-69
2022/03/12 04:13:12;;;;;;;22.27;11.73;;;7.40;67.40;;;;;;5073179;28;20024;-69
2022/03/12 04:15:39;;;;;;;20.83;11.10;;;7.30;67.40;;;;;;5074809;28;20120;-69
2022/03/12 04:18:05;;;;;;;22.02;10.80;;;7.20;67.40;;;;;;5074711;28;20024;-69
2022/03/12 04:20:31;;;;;;;21.77;10.40;;;7.10;67.80;;;;;;5073093;28;20047;-69
2022/03/12 04:22:57;;;;;;;20.13;11.30;;;7.00;67.80;;;;;;5074484;28;20024;-69
2022/03/12 04:25:23;;;;;;;18.50;10.63;;;6.90;67.90;;;;;;5073388;28;20253;-68
2022/03/12 04:27:49;;;;;;;;;;;6.80;68.10;;;;;;5073672;28;20033;-69
2022/03/12 04:30:19;;;;;;;18.08;10.20;;;6.80;68.30;;;;;;5073689;28;20007;-69
2022/03/12 04:32:45;;;;;;;23.50;10.75;;;6.70;68.40;;;;;;5087578;28;20024;-69
2022/03/12 04:35:11;;;;;;;21.77;10.98;;;6.70;68.50;;;;;;5085941;28;20094;-68
2022/03/12 04:37:37;;;;;;;18.13;9.43;;;6.70;68.60;;;;;;5074789;28;20025;-68
2022/03/12 04:40:10;;;;;;;19.80;11.07;;;6.70;68.60;;;;;;5073671;28;20051;-69
2022/03/12 04:42:42;;;;;;;19.50;10.75;;;6.70;68.60;;;;;;5072659;28;20020;-69
2022/03/12 04:45:11;;;;;;;18.08;10.50;;;6.60;68.80;;;;;;5073777;28;20386;-69
2022/03/12 04:47:41;;;;;;;22.33;10.45;;;6.60;68.70;;;;;;5073976;28;20107;-69
2022/03/12 04:50:07;;;;;;;21.27;11.43;;;6.70;68.60;;;;;;5075741;28;20024;-68
2022/03/12 04:52:35;;;;;;;20.83;10.32;;;6.60;68.50;;;;;;5079964;28;20020;-69
2022/03/12 04:55:11;;;;;;;20.48;10.32;;;6.60;68.70;;;;;;5073539;28;20485;-70
2022/03/12 04:57:37;;;;;;;21.45;10.10;;;6.60;68.60;;;;;;5073187;28;20126;-69
2022/03/12 05:00:09;;;;;;;18.77;10.10;;;6.50;68.60;;;;;;5073945;28;20016;-70
2022/03/12 05:02:35;;;;;;;16.50;10.20;;;6.50;68.60;;;;;;5073574;28;20025;-69
2022/03/12 05:05:01;;;;;;;15.65;9.77;;;6.40;68.60;;;;;;5073277;28;20508;-70
2022/03/12 05:07:27;;;;;;;18.52;10.52;;;6.40;68.80;;;;;;5075762;28;20082;-70
2022/03/12 05:09:56;;;;;;;18.63;9.90;;;6.40;69.40;;;;;;5074669;28;20434;-70
2022/03/12 05:12:23;;;;;;;15.25;9.48;;;6.40;68.90;;;;;;5074781;28;20255;-70
2022/03/12 05:14:54;;;;;;;22.40;10.27;;;6.30;69.00;;;;;;5075069;28;20020;-69
2022/03/12 05:17:23;;;;;;;16.33;9.90;;;6.20;69.50;;;;;;5073890;28;20029;-70
2022/03/12 05:19:49;;;;;;;15.90;10.32;;;6.20;69.90;;;;;;5074859;28;20013;-70
2022/03/12 05:22:14;;;;;;;19.97;9.57;;;6.20;70.20;;;;;;5073257;28;20115;-70
2022/03/12 05:24:40;;;;;;;17.53;9.70;;;6.20;70.40;;;;;;5074920;28;20115;-69
2022/03/12 05:27:06;;;;;;;19.13;10.03;;;6.20;70.00;;;;;;5073585;28;20043;-70
2022/03/12 05:29:33;;;;;;;17.85;10.00;;;6.30;69.90;;;;;;5072994;28;20378;-68
2022/03/12 05:31:59;;;;;;;17.35;9.60;;;6.30;69.10;;;;;;5073844;28;20025;-69
2022/03/12 05:34:25;;;;;;;21.13;10.32;;;6.30;69.00;;;;;;5072174;28;20024;-69
2022/03/12 05:36:52;;;;;;;16.88;9.75;;;6.30;69.00;;;;;;5073635;28;20029;-69
2022/03/12 05:39:18;;;;;;;17.60;10.07;;;6.30;69.00;;;;;;5073599;28;20486;-69
2022/03/12 05:41:48;;;;;;;18.25;9.60;;;6.30;68.80;;;;;;5072345;28;20028;-69
2022/03/12 05:44:14;;;;;;;18.65;10.32;;;6.30;68.70;;;;;;5077060;28;20075;-69
2022/03/12 05:46:42;;;;;;;16.85;9.57;;;6.30;68.70;;;;;;5094139;28;20024;-68
2022/03/12 05:49:09;;;;;;;17.85;10.00;;;6.40;68.90;;;;;;5094690;28;20028;-69
2022/03/12 05:51:36;;;;;;;;;;;6.60;68.40;;;;;;5073456;28;20025;-69
2022/03/12 05:54:02;;;;;;;19.52;9.80;;;6.50;68.40;;;;;;5072472;28;19904;-69
2022/03/12 05:56:28;;;;;;;18.65;10.05;;;6.40;69.30;;;;;;5071990;28;20464;-69
2022/03/12 05:58:54;;;;;;;18.35;10.18;;;6.40;68.70;;;;;;5071741;28;20063;-69
2022/03/12 06:01:19;;;;;;;18.27;10.23;;;6.40;68.90;;;;;;5071764;28;20020;-69
2022/03/12 06:06:14;;;;;;;17.48;10.70;;;6.40;69.10;;;;;;5099404;22;20055;-68
2022/03/12 06:08:40;;;;;;;21.42;9.35;;;6.30;69.60;;;;;;5080323;28;20056;-67
2022/03/12 06:11:06;;;;;;;;;;;6.40;69.60;;;;;;5081593;28;20024;-68
2022/03/12 06:13:32;;;;;;;17.13;9.05;;;6.40;69.50;;;;;;5080539;28;19915;-68
2022/03/12 06:16:00;;;;;;;15.52;8.75;;;6.40;69.50;;;;;;5078468;28;20032;-68
2022/03/12 06:18:32;;;;;;;17.17;9.85;;;6.40;69.50;;;;;;5078234;28;20017;-68
2022/03/12 06:20:59;;;;;;;16.25;9.15;;;6.40;69.50;;;;;;5078664;28;20024;-67
2022/03/12 06:23:24;;;;;;;17.20;9.50;;;6.40;69.60;;;;;;5079199;28;20024;-67
2022/03/12 06:25:51;;;;;;;15.33;9.40;;;6.40;69.80;;;;;;5081788;28;20028;-68
2022/03/12 06:28:17;;;;;;;19.27;9.80;;;6.50;70.00;;;;;;5082126;28;20107;-67
2022/03/12 06:30:43;;;;;;;19.10;9.80;;;6.50;70.10;;;;;;5077958;28;20024;-67
2022/03/12 06:33:09;;;;;;;18.87;9.87;;;6.50;70.20;;;;;;5077774;28;20024;-68
2022/03/12 06:35:35;;;;;;;17.80;9.70;;;6.60;70.20;;;;;;5077950;28;20032;-66
2022/03/12 06:38:01;;;;;;;27.33;12.85;;;6.60;70.30;;;;;;5077694;28;20033;-68
2022/03/12 06:40:28;;;;;;;16.97;9.53;;;6.60;70.20;;;;;;5075965;28;20127;-67
2022/03/12 06:42:56;;;;;;;16.58;9.63;;;6.70;70.30;;;;;;5075726;28;20031;-67
2022/03/12 06:45:24;;;;;;;19.60;10.48;;;6.70;70.40;;;;;;5076511;28;20548;-66
2022/03/12 06:47:50;;;;;;;19.60;10.35;;;6.60;70.40;;;;;;5075532;28;20062;-68
2022/03/12 06:50:22;;;;;;;21.05;10.45;;;6.60;71.50;;;;;;5075433;28;20028;-68
2022/03/12 06:52:48;;;;;;;17.63;9.88;;;6.60;71.00;;;;;;5075328;28;20028;-68
2022/03/12 06:55:19;;;;;;;21.77;11.18;;;6.60;71.10;;;;;;5074931;28;20020;-67
2022/03/12 06:57:47;;;;;;;17.92;9.48;;;6.60;71.20;;;;;;5076892;28;20047;-68
2022/03/12 07:00:16;;;;;;;18.73;10.43;;;6.50;71.30;;;;;;5078157;28;20021;-68
2022/03/12 07:02:42;;;;;;;17.35;9.95;;;6.50;71.30;;;;;;5077636;28;20035;-68
2022/03/12 07:05:09;;;;;;;17.10;9.43;;;6.50;71.50;;;;;;5077739;28;20037;-68
2022/03/12 07:07:35;;;;;;;21.52;10.10;;;6.60;71.10;;;;;;5078851;28;20034;-67
2022/03/12 07:10:00;;;;;;;18.80;9.77;;;6.60;70.90;;;;;;5078552;28;20100;-68
2022/03/12 07:12:26;;;;;;;18.43;10.37;;;6.60;70.80;;;;;;5077937;28;20021;-68
2022/03/12 07:14:52;;;;;;;17.73;9.17;;;6.70;70.70;;;;;;5074921;28;20021;-68
2022/03/12 07:17:18;;;;;;;16.55;9.20;;;6.70;70.70;;;;;;5076476;28;20024;-68
2022/03/12 07:19:43;;;;;;;13.85;9.20;;;6.70;70.40;;;;;;5076068;28;20384;-68
2022/03/12 07:22:09;;;;;;;26.40;10.63;;;6.70;70.40;;;;;;5075931;28;20059;-68
2022/03/12 07:24:35;;;;;;;16.53;9.83;;;6.70;70.20;;;;;;5076473;28;20024;-67
2022/03/12 07:27:01;;;;;;;18.73;9.88;;;6.70;70.30;;;;;;5076720;28;20016;-68
2022/03/12 07:29:29;;;;;;;16.83;9.43;;;6.80;70.50;;;;;;5076699;28;20045;-67
2022/03/12 07:31:56;;;;;;;16.67;10.05;;;6.80;70.50;;;;;;5076205;28;20477;-66
2022/03/12 07:34:21;;;;;;;;;;;6.80;70.40;;;;;;5075985;28;20102;-66
2022/03/12 07:36:48;;;;;;;16.65;10.10;;;7.00;70.50;;;;;;5075518;28;19943;-66
2022/03/12 07:39:13;;;;;;;19.58;9.75;;;7.00;70.20;;;;;;5076783;28;20671;-66
2022/03/12 07:41:39;;;;;;;17.60;9.60;;;7.10;70.20;;;;;;5076621;28;20062;-66
2022/03/12 07:44:08;;;;;;;20.00;10.60;;;7.10;71.00;;;;;;5077149;28;20052;-67
2022/03/12 07:46:34;;;;;;;19.35;9.93;;;7.20;70.50;;;;;;5075294;28;20267;-67
2022/03/12 07:49:01;;;;;;;20.85;10.32;;;7.20;70.50;;;;;;5075613;28;20017;-66
2022/03/12 07:51:26;;;;;;;17.40;10.65;;;7.30;70.30;;;;;;5075122;28;20025;-67
2022/03/12 07:53:52;;;;;;;18.87;10.30;;;7.50;70.10;;;;;;5076041;28;20021;-68
2022/03/12 07:56:18;;;;;;;21.17;10.80;;;7.50;70.20;;;;;;5075175;28;20279;-66
2022/03/12 07:58:44;;;;;;;19.67;10.65;;;7.60;70.30;;;;;;5076044;28;20028;-67
2022/03/12 08:01:10;;;;;;;17.77;10.10;;;7.70;70.00;;;;;;5077559;28;20029;-68
2022/03/12 08:03:36;;;;;;;19.55;10.55;;;7.80;69.70;;;;;;5075279;28;20262;-69
2022/03/12 08:06:04;;;;;;;18.60;10.73;;;8.00;69.70;;;;;;5075075;28;20051;-69
2022/03/12 08:08:30;;;;;;;16.58;10.27;;;8.10;69.00;;;;;;5074919;28;20505;-68
2022/03/12 08:13:41;;;;;;;18.38;10.07;;;8.20;68.10;;;;;;5076223;28;20101;-68
2022/03/12 08:16:07;;;;;;;19.90;11.40;;;8.40;67.90;;;;;;5075249;28;20496;-69
2022/03/12 08:18:33;;;;;;;18.75;10.18;;;8.50;67.60;;;;;;5073913;28;20029;-69
2022/03/12 08:20:59;;;;;;;20.63;11.03;;;8.70;66.80;;;;;;5073522;28;20024;-68
2022/03/12 08:23:25;;;;;;;19.13;10.98;;;8.80;66.30;;;;;;5074893;28;20457;-68
2022/03/12 08:25:51;;;;;;;20.93;10.40;;;8.90;65.90;;;;;;5075135;28;20041;-70
2022/03/12 08:28:18;;;;;;;20.52;10.48;;;9.00;65.40;;;;;;5073513;28;20032;-69
2022/03/12 08:30:43;;;;;;;19.30;10.73;;;9.10;65.00;;;;;;5074665;28;20515;-68
2022/03/12 08:33:09;;;;;;;18.13;11.50;;;9.30;64.90;;;;;;5074465;28;20037;-69
2022/03/12 08:35:36;;;;;;;21.52;10.60;;;9.50;64.60;;;;;;5074293;28;20070;-69
2022/03/12 08:38:02;;;;;;;;;;;9.60;64.10;;;;;;5073804;28;20088;-71
2022/03/12 08:40:28;;;;;;;19.65;11.43;;;9.60;63.60;;;;;;5074692;28;20357;-71
2022/03/12 08:42:54;;;;;;;17.67;10.23;;;9.80;63.40;;;;;;5074804;28;20028;-72
2022/03/12 08:45:20;;;;;;;21.65;10.75;;;9.90;62.50;;;;;;5074551;28;20393;-72
2022/03/12 08:47:46;;;;;;;21.23;10.93;;;9.90;62.40;;;;;;5074329;28;20036;-69
2022/03/12 08:50:13;;;;;;;20.98;11.00;;;10.00;62.40;;;;;;5073011;28;20037;-70
2022/03/12 08:52:41;;;;;;;16.67;10.43;;;10.20;62.20;;;;;;5072541;28;20028;-70
2022/03/12 08:55:08;;;;;;;19.15;10.70;;;10.30;61.60;;;;;;5074160;28;20484;-68
2022/03/12 08:57:33;;;;;;;21.05;11.82;;;10.30;61.50;;;;;;5075983;28;20033;-74
2022/03/12 08:59:59;;;;;;;19.10;10.03;;;10.40;61.50;;;;;;5076849;28;20032;-69
2022/03/12 09:02:25;;;;;;;19.90;11.13;;;10.40;61.60;;;;;;5073579;28;20028;-69
2022/03/12 09:04:51;;;;;;;18.73;10.48;;;10.50;61.10;;;;;;5074163;28;20068;-70
2022/03/12 09:07:17;;;;;;;;;;;10.60;61.20;;;;;;5074945;28;20055;-70
2022/03/12 09:09:43;;;;;;;17.33;10.57;;;10.70;60.80;;;;;;5080033;28;19911;-74
2022/03/12 09:12:09;;;;;;;20.80;11.10;;;10.90;60.50;;;;;;5076254;28;20385;-69
2022/03/12 09:14:35;;;;;;;20.30;10.77;;;11.20;60.20;;;;;;5076247;28;20126;-71
2022/03/12 09:17:03;;;;;;;18.33;10.57;;;12.60;58.10;;;;;;5074199;28;20525;-71
2022/03/12 09:19:29;;;;;;;20.40;10.18;;;14.10;55.60;;;;;;5073506;28;20028;-70
2022/03/12 09:21:56;;;;;;;16.20;11.43;;;15.10;53.80;;;;;;5074531;28;20024;-69
2022/03/12 09:24:22;;;;;;;15.57;10.68;;;16.10;51.80;;;;;;5072662;28;20060;-69
2022/03/12 09:26:48;;;;;;;24.80;12.63;;;16.90;50.70;;;;;;5072359;28;20052;-68
2022/03/12 09:29:14;;;;;;;18.17;10.95;;;17.50;49.50;;;;;;5074039;28;20501;-69
2022/03/12 09:31:39;;;;;;;16.95;12.13;;;17.40;49.20;;;;;;5075055;28;20024;-73
2022/03/12 09:34:06;;;;;;;18.42;11.95;;;17.80;48.50;;;;;;5073824;28;20106;-73
2022/03/12 09:36:32;;;;;;;19.23;11.75;;;17.40;48.80;;;;;;5072978;28;20095;-71
2022/03/12 09:38:59;;;;;;;20.77;12.20;;;17.70;48.80;;;;;;5075046;28;20012;-69
2022/03/12 09:41:25;;;;;;;16.65;11.98;;;18.30;47.80;;;;;;5082792;28;20017;-70
2022/03/12 09:43:51;;;;;;;18.73;12.20;;;18.70;47.70;;;;;;5079986;28;20028;-70
2022/03/12 09:46:18;;;;;;;18.60;12.55;;;19.40;46.50;;;;;;5077353;28;20033;-70
2022/03/12 09:48:43;;;;;;;;;;;20.00;46.10;;;;;;5078721;28;20081;-70
2022/03/12 09:51:09;;;;;;;21.48;12.80;;;19.70;45.90;;;;;;5078046;28;19990;-68
2022/03/12 09:53:35;;;;;;;17.13;12.18;;;19.50;46.20;;;;;;5075064;28;20074;-67
2022/03/12 09:56:01;;;;;;;18.85;12.40;;;20.10;45.90;;;;;;5074468;28;20040;-70
2022/03/12 09:58:27;;;;;;;20.73;12.77;;;20.70;44.80;;;;;;5076306;28;20028;-67
2022/03/12 10:00:53;;;;;;;22.73;12.38;;;20.40;44.80;;;;;;5073324;28;20023;-68
2022/03/12 10:03:19;;;;;;;20.05;13.13;;;19.40;45.90;;;;;;5075471;28;20028;-73
2022/03/12 10:05:44;;;;;;;20.17;13.02;;;18.70;47.10;;;;;;5074797;28;20126;-69
2022/03/12 10:08:10;;;;;;;18.88;12.07;;;19.70;46.20;;;;;;5073693;28;20032;-70
2022/03/12 10:10:35;;;;;;;16.63;12.23;;;20.10;45.40;;;;;;5074795;28;20348;-73
2022/03/12 10:13:03;;;;;;;19.17;13.10;;;20.50;45.20;;;;;;5073787;28;20047;-73
2022/03/12 10:15:28;;;;;;;17.40;12.20;;;20.80;44.70;;;;;;5074113;28;20105;-74
2022/03/12 10:17:54;;;;;;;18.55;13.48;;;20.20;45.30;;;;;;5074425;28;20021;-74
2022/03/12 10:20:20;;;;;;;17.85;11.88;;;20.20;45.60;;;;;;5074591;28;20031;-75
2022/03/12 10:22:46;;;;;;;;;;;20.90;45.30;;;;;;5073093;28;20021;-68
2022/03/12 10:25:13;;;;;;;17.30;13.10;;;21.00;45.00;;;;;;5074111;28;19908;-68
2022/03/12 10:27:39;;;;;;;18.67;13.05;;;20.50;45.60;;;;;;5073704;28;20021;-69
2022/03/12 10:30:06;;;;;;;20.00;14.23;;;20.50;45.60;;;;;;5073287;28;20017;-69
2022/03/12 10:32:41;;;;;;;20.23;13.55;;;20.80;45.50;;;;;;5073216;28;20044;-69
2022/03/12 10:35:08;;;;;;;17.30;12.70;;;21.10;44.90;;;;;;5072548;28;20078;-68
2022/03/12 10:37:35;;;;;;;22.33;12.93;;;20.60;45.60;;;;;;5073143;28;20368;-68
2022/03/12 10:40:06;;;;;;;19.52;13.48;;;19.90;46.00;;;;;;5072416;28;20381;-69
2022/03/12 10:42:33;;;;;;;19.35;12.52;;;19.70;46.70;;;;;;5072366;28;20025;-70
2022/03/12 10:45:17;;;;;;;18.38;13.50;;;19.90;46.80;;;;;;5073325;28;20029;-70
2022/03/12 10:47:45;;;;;;;20.35;12.52;;;20.50;46.40;;;;;;5073372;28;20025;-69
2022/03/12 10:50:16;;;;;;;18.50;13.00;;;21.10;45.80;;;;;;5072376;28;20131;-69
2022/03/12 10:52:47;;;;;;;19.65;12.50;;;20.60;46.00;;;;;;5076665;28;20035;-68
2022/03/12 10:55:19;;;;;;;17.35;12.60;;;20.50;46.40;;;;;;5077190;28;20024;-69
2022/03/12 10:57:58;;;;;;;17.25;12.60;;;20.40;46.50;;;;;;5076651;28;20017;-69
2022/03/12 11:00:26;;;;;;;16.90;11.98;;;19.80;47.40;;;;;;5078086;28;20016;-69
2022/03/12 11:02:57;;;;;;;19.42;12.80;;;20.10;47.10;;;;;;5078437;28;20190;-70
2022/03/12 11:05:28;;;;;;;19.25;13.18;;;20.30;47.30;;;;;;5077423;28;20029;-69
2022/03/12 11:08:16;;;;;;;16.10;12.40;;;20.30;47.20;;;;;;5075209;28;20052;-68
2022/03/12 11:11:06;;;;;;;24.48;12.48;;;20.00;47.50;;;;;;5076763;28;20535;-68
2022/03/12 11:13:40;;;;;;;21.10;12.38;;;19.70;47.50;;;;;;5075989;28;20031;-68
2022/03/12 11:16:08;;;;;;;19.98;12.50;;;18.90;48.30;;;;;;5075110;28;20023;-69
2022/03/12 11:18:34;;;;;;;16.98;12.02;;;17.90;49.70;;;;;;5075753;28;20024;-67
2022/03/12 11:21:00;;;;;;;20.55;12.10;;;17.60;50.70;;;;;;5075916;28;20027;-71
2022/03/12 11:23:29;;;;;;;;;;;16.90;52.10;;;;;;5076255;28;20031;-70
2022/03/12 11:26:04;;;;;;;17.30;11.13;;;16.50;53.30;;;;;;5074451;28;20422;-70
2022/03/12 11:28:31;;;;;;;22.15;12.07;;;16.40;53.50;;;;;;5076181;28;20036;-68
2022/03/12 11:30:57;;;;;;;19.90;11.38;;;16.30;53.90;;;;;;5074349;28;20029;-69
2022/03/12 11:33:25;;;;;;;15.68;10.80;;;16.30;54.40;;;;;;5074876;28;20028;-70
2022/03/12 11:35:59;;;;;;;14.85;10.40;;;16.10;54.90;;;;;;5074428;28;20090;-69
2022/03/12 11:38:24;;;;;;;15.00;10.30;;;15.90;55.70;;;;;;5075944;28;20025;-68
2022/03/12 11:41:01;;;;;;;17.10;11.20;;;15.80;56.60;;;;;;5075998;28;20017;-69
2022/03/12 11:43:31;;;;;;;14.93;10.18;;;15.80;55.80;;;;;;5075576;28;20029;-69
2022/03/12 11:46:00;;;;;;;14.55;10.50;;;15.80;55.60;;;;;;5075392;28;20469;-72
2022/03/12 11:48:30;;;;;;;16.40;10.45;;;15.90;56.00;;;;;;5074130;28;20039;-70
2022/03/12 11:50:56;;;;;;;14.60;9.50;;;16.00;56.20;;;;;;5075306;28;20021;-70
2022/03/12 11:53:22;;;;;;;13.65;9.15;;;16.00;56.50;;;;;;5075238;28;20036;-69
2022/03/12 11:55:51;;;;;;;17.90;10.00;;;15.90;57.10;;;;;;5073447;28;20032;-71
2022/03/12 11:58:18;;;;;;;16.15;9.98;;;15.90;57.20;;;;;;5075188;28;20122;-69
2022/03/12 12:00:46;;;;;;;14.88;9.52;;;15.90;57.10;;;;;;5074710;28;20076;-72
2022/03/12 12:03:16;;;;;;;15.23;9.85;;;15.90;57.10;;;;;;5073644;28;20131;-69
2022/03/12 12:05:46;;;;;;;15.10;9.63;;;16.00;57.10;;;;;;5075826;28;20036;-69
2022/03/12 12:08:15;;;;;;;14.32;9.30;;;16.00;56.90;;;;;;5074449;28;20060;-71
2022/03/12 12:10:43;;;;;;;16.05;9.63;;;15.90;57.30;;;;;;5076291;28;20048;-69
2022/03/12 12:13:14;;;;;;;12.23;8.05;;;15.90;57.40;;;;;;5077451;28;20036;-72
2022/03/12 12:15:41;;;;;;;15.27;8.02;;;16.00;58.50;;;;;;5079063;28;20029;-71
2022/03/12 12:18:10;;;;;;;13.38;8.00;;;15.90;58.80;;;;;;5077901;28;20081;-72
2022/03/12 12:20:36;;;;;;;19.02;9.00;;;15.90;57.90;;;;;;5076295;28;20043;-72
2022/03/12 12:23:03;;;;;;;13.43;9.02;;;15.70;58.40;;;;;;5074777;28;20111;-69
2022/03/12 12:25:37;;;;;;;13.75;9.25;;;15.60;58.60;;;;;;5074062;28;20024;-70
2022/03/12 12:28:21;;;;;;;16.60;8.93;;;15.50;57.70;;;;;;5076189;28;20017;-71
2022/03/12 12:30:49;;;;;;;12.27;7.65;;;15.60;58.50;;;;;;5075350;28;20119;-73
2022/03/12 12:33:19;;;;;;;12.52;7.78;;;15.50;59.30;;;;;;5075278;28;20025;-70
2022/03/12 12:35:51;;;;;;;13.15;7.68;;;15.40;59.40;;;;;;5073610;28;20024;-71
2022/03/12 12:38:20;;;;;;;12.10;8.32;;;15.50;60.00;;;;;;5074752;28;20020;-71
2022/03/12 12:40:51;;;;;;;13.45;9.27;;;15.50;59.20;;;;;;5073634;28;20020;-69
2022/03/12 12:43:26;;;;;;;14.73;9.38;;;15.60;59.10;;;;;;5073878;28;20071;-70
2022/03/12 12:45:52;;;;;;;15.38;9.32;;;15.70;59.00;;;;;;5075492;28;20112;-69
2022/03/12 12:48:20;;;;;;;12.90;9.23;;;15.70;58.70;;;;;;5076149;28;20395;-71